createdAt,value
2018-02-22T00:00:04.973Z,920.81
2018-02-22T00:00:33.237Z,920.85
2018-02-22T00:01:01.378Z,920.84
2018-02-22T00:01:29.566Z,920.86
2018-02-22T00:01:57.599Z,920.91
2018-02-22T00:02:25.679Z,920.89
2018-02-22T00:02:53.974Z,920.94
2018-02-22T00:03:22.201Z,920.94
2018-02-22T00:03:50.514Z,920.94
2018-02-22T00:04:18.730Z,920.97
2018-02-22T00:04:46.828Z,921
2018-02-22T00:05:58.016Z,920.94
2018-02-22T00:06:26.181Z,920.97
2018-02-22T00:06:54.316Z,920.98
2018-02-22T00:07:22.411Z,920.99
2018-02-22T00:07:50.441Z,921
2018-02-22T00:08:18.721Z,921
2018-02-22T00:08:46.912Z,920.99
2018-02-22T00:09:14.931Z,921.01
2018-02-22T00:09:43.148Z,921.01
2018-02-22T00:10:11.270Z,921.04
2018-02-22T00:10:39.360Z,921.01
2018-02-22T00:11:50.547Z,921.03
2018-02-22T00:12:18.813Z,921.06
2018-02-22T00:12:47.049Z,921.08
2018-02-22T00:13:15.143Z,921.08
2018-02-22T00:13:43.271Z,921.11
2018-02-22T00:14:11.444Z,921.08
2018-02-22T00:14:39.343Z,921.14
2018-02-22T00:15:07.268Z,921.14
2018-02-22T00:15:35.391Z,921.13
2018-02-22T00:16:03.703Z,921.15
2018-02-22T00:16:31.900Z,921.19
2018-02-22T00:17:43.188Z,921.21
2018-02-22T00:18:11.352Z,921.18
2018-02-22T00:18:39.488Z,921.2
2018-02-22T00:19:07.677Z,921.22
2018-02-22T00:19:35.611Z,921.25
2018-02-22T00:20:03.885Z,921.25
2018-02-22T00:20:32.076Z,921.22
2018-02-22T00:21:00.297Z,921.23
2018-02-22T00:21:28.417Z,921.2
2018-02-22T00:21:56.733Z,921.25
2018-02-22T00:22:24.928Z,921.23
2018-02-22T00:23:36.211Z,921.23
2018-02-22T00:24:04.483Z,921.21
2018-02-22T00:24:32.317Z,921.23
2018-02-22T00:25:00.312Z,921.25
2018-02-22T00:25:28.358Z,921.21
2018-02-22T00:25:56.519Z,921.26
2018-02-22T00:26:24.620Z,921.27
2018-02-22T00:26:52.646Z,921.28
2018-02-22T00:27:20.867Z,921.28
2018-02-22T00:27:48.982Z,921.28
2018-02-22T00:28:17.175Z,921.28
2018-02-22T00:29:28.257Z,921.32
2018-02-22T00:29:56.327Z,921.33
2018-02-22T00:30:24.458Z,921.36
2018-02-22T00:30:52.556Z,921.33
2018-02-22T00:31:20.692Z,921.35
2018-02-22T00:31:48.766Z,921.34
2018-02-22T00:32:16.962Z,921.36
2018-02-22T00:32:45.187Z,921.39
2018-02-22T00:33:13.502Z,921.39
2018-02-22T00:33:41.722Z,921.41
2018-02-22T00:34:09.822Z,921.38
2018-02-22T00:35:21.005Z,921.38
2018-02-22T00:35:49.165Z,921.38
2018-02-22T00:36:17.304Z,921.38
2018-02-22T00:36:45.296Z,921.38
2018-02-22T00:37:13.326Z,921.37
2018-02-22T00:37:41.501Z,921.36
2018-02-22T00:38:09.798Z,921.4
2018-02-22T00:38:38.022Z,921.36
2018-02-22T00:39:06.146Z,921.38
2018-02-22T00:39:34.462Z,921.37
2018-02-22T00:40:02.661Z,921.4
2018-02-22T00:41:13.947Z,921.39
2018-02-22T00:41:42.008Z,921.38
2018-02-22T00:42:10.149Z,921.35
2018-02-22T00:42:38.344Z,921.37
2018-02-22T00:43:06.475Z,921.38
2018-02-22T00:43:34.653Z,921.42
2018-02-22T00:44:02.746Z,921.36
2018-02-22T00:44:30.873Z,921.42
2018-02-22T00:44:59.222Z,921.38
2018-02-22T00:45:27.518Z,921.39
2018-02-22T00:45:55.515Z,921.39
2018-02-22T00:47:06.798Z,921.42
2018-02-22T00:47:34.856Z,921.45
2018-02-22T00:48:02.795Z,921.44
2018-02-22T00:48:30.983Z,921.48
2018-02-22T00:48:59.013Z,921.48
2018-02-22T00:49:27.292Z,921.47
2018-02-22T00:49:55.297Z,921.49
2018-02-22T00:50:23.311Z,921.52
2018-02-22T00:50:51.525Z,921.51
2018-02-22T00:51:19.831Z,921.53
2018-02-22T00:51:47.928Z,921.55
2018-02-22T00:52:59.116Z,921.53
2018-02-22T00:53:27.279Z,921.54
2018-02-22T00:53:55.513Z,921.52
2018-02-22T00:54:23.600Z,921.57
2018-02-22T00:54:51.629Z,921.55
2018-02-22T00:55:19.904Z,921.61
2018-02-22T00:55:47.997Z,921.57
2018-02-22T00:56:16.220Z,921.58
2018-02-22T00:56:44.439Z,921.54
2018-02-22T00:57:12.658Z,921.55
2018-02-22T00:57:40.951Z,921.59
2018-02-22T00:58:52.238Z,921.56
2018-02-22T00:59:20.404Z,921.59
2018-02-22T00:59:48.544Z,921.61
2018-02-22T01:00:16.537Z,921.58
2018-02-22T01:00:44.774Z,921.61
2018-02-22T01:01:12.945Z,921.61
2018-02-22T01:01:41.141Z,921.63
2018-02-22T01:02:09.163Z,921.62
2018-02-22T01:02:37.276Z,921.63
2018-02-22T01:03:05.588Z,921.64
2018-02-22T01:03:33.882Z,921.63
2018-02-22T01:04:45.074Z,921.59
2018-02-22T01:05:13.232Z,921.61
2018-02-22T01:05:41.271Z,921.64
2018-02-22T01:06:09.358Z,921.61
2018-02-22T01:06:37.390Z,921.62
2018-02-22T01:07:05.366Z,921.62
2018-02-22T01:07:33.271Z,921.62
2018-02-22T01:08:01.492Z,921.63
2018-02-22T01:08:29.614Z,921.64
2018-02-22T01:08:57.729Z,921.59
2018-02-22T01:09:25.933Z,921.66
2018-02-22T01:10:37.120Z,921.64
2018-02-22T01:11:05.283Z,921.65
2018-02-22T01:11:33.421Z,921.66
2018-02-22T01:12:01.511Z,921.61
2018-02-22T01:12:29.635Z,921.64
2018-02-22T01:12:57.710Z,921.65
2018-02-22T01:13:25.907Z,921.62
2018-02-22T01:13:54.032Z,921.64
2018-02-22T01:14:22.248Z,921.6
2018-02-22T01:14:50.559Z,921.61
2018-02-22T01:15:18.749Z,921.61
2018-02-22T01:16:29.936Z,921.59
2018-02-22T01:16:58.202Z,921.56
2018-02-22T01:17:26.240Z,921.6
2018-02-22T01:17:54.231Z,921.62
2018-02-22T01:18:22.157Z,921.6
2018-02-22T01:18:50.436Z,921.58
2018-02-22T01:19:18.534Z,921.6
2018-02-22T01:19:46.657Z,921.63
2018-02-22T01:20:14.778Z,921.61
2018-02-22T01:20:42.995Z,921.6
2018-02-22T01:21:11.090Z,921.59
2018-02-22T01:22:22.270Z,921.6
2018-02-22T01:22:50.532Z,921.65
2018-02-22T01:23:18.772Z,921.64
2018-02-22T01:23:46.855Z,921.65
2018-02-22T01:24:14.989Z,921.64
2018-02-22T01:24:43.161Z,921.65
2018-02-22T01:25:11.258Z,921.63
2018-02-22T01:25:39.285Z,921.65
2018-02-22T01:26:07.597Z,921.63
2018-02-22T01:26:35.809Z,921.65
2018-02-22T01:27:04.450Z,921.66
2018-02-22T01:28:15.741Z,921.64
2018-02-22T01:28:43.997Z,921.63
2018-02-22T01:29:12.030Z,921.65
2018-02-22T01:29:40.220Z,921.64
2018-02-22T01:30:08.247Z,921.64
2018-02-22T01:30:36.324Z,921.63
2018-02-22T01:31:04.517Z,921.66
2018-02-22T01:31:32.741Z,921.64
2018-02-22T01:32:00.864Z,921.62
2018-02-22T01:32:29.077Z,921.61
2018-02-22T01:32:57.276Z,921.57
2018-02-22T01:34:08.362Z,921.64
2018-02-22T01:34:36.625Z,921.64
2018-02-22T01:35:04.770Z,921.6
2018-02-22T01:35:32.956Z,921.61
2018-02-22T01:36:01.085Z,921.61
2018-02-22T01:36:29.263Z,921.62
2018-02-22T01:36:57.359Z,921.6
2018-02-22T01:37:25.488Z,921.6
2018-02-22T01:37:53.704Z,921.6
2018-02-22T01:38:21.822Z,921.63
2018-02-22T01:38:49.918Z,921.61
2018-02-22T01:40:01.110Z,921.6
2018-02-22T01:40:29.367Z,921.61
2018-02-22T01:40:57.407Z,921.61
2018-02-22T01:41:25.595Z,921.62
2018-02-22T01:41:53.628Z,921.59
2018-02-22T01:42:21.801Z,921.6
2018-02-22T01:42:49.696Z,921.57
2018-02-22T01:43:17.518Z,921.6
2018-02-22T01:43:45.830Z,921.58
2018-02-22T01:44:14.148Z,921.56
2018-02-22T01:44:42.347Z,921.62
2018-02-22T01:45:53.432Z,921.6
2018-02-22T01:46:21.588Z,921.57
2018-02-22T01:46:49.629Z,921.58
2018-02-22T01:47:17.617Z,921.62
2018-02-22T01:47:45.353Z,921.63
2018-02-22T01:48:13.526Z,921.63
2018-02-22T01:48:41.721Z,921.62
2018-02-22T01:49:09.743Z,921.59
2018-02-22T01:49:37.856Z,921.6
2018-02-22T01:50:05.871Z,921.61
2018-02-22T01:50:34.170Z,921.58
2018-02-22T01:51:45.357Z,921.6
2018-02-22T01:52:13.420Z,921.6
2018-02-22T01:52:41.556Z,921.55
2018-02-22T01:53:09.347Z,921.59
2018-02-22T01:53:37.276Z,921.6
2018-02-22T01:54:05.551Z,921.59
2018-02-22T01:54:33.646Z,921.59
2018-02-22T01:55:01.567Z,921.59
2018-02-22T01:55:29.685Z,921.6
2018-02-22T01:55:57.802Z,921.6
2018-02-22T01:56:25.997Z,921.58
2018-02-22T01:57:36.985Z,921.61
2018-02-22T01:58:05.050Z,921.6
2018-02-22T01:58:33.086Z,921.62
2018-02-22T01:59:01.073Z,921.63
2018-02-22T01:59:29.098Z,921.63
2018-02-22T01:59:57.275Z,921.59
2018-02-22T02:00:25.367Z,921.64
2018-02-22T02:00:53.292Z,921.61
2018-02-22T02:01:21.314Z,921.61
2018-02-22T02:01:49.431Z,921.57
2018-02-22T02:02:17.526Z,921.58
2018-02-22T02:03:28.712Z,921.58
2018-02-22T02:03:56.975Z,921.61
2018-02-22T02:04:25.214Z,921.58
2018-02-22T02:04:53.200Z,921.58
2018-02-22T02:05:21.139Z,921.57
2018-02-22T02:05:49.314Z,921.61
2018-02-22T02:06:17.607Z,921.56
2018-02-22T02:06:45.733Z,921.57
2018-02-22T02:07:13.953Z,921.58
2018-02-22T02:07:42.167Z,921.56
2018-02-22T02:08:10.361Z,921.6
2018-02-22T02:09:21.648Z,921.62
2018-02-22T02:09:49.817Z,921.63
2018-02-22T02:10:18.047Z,921.65
2018-02-22T02:10:46.240Z,921.63
2018-02-22T02:11:14.277Z,921.65
2018-02-22T02:11:42.452Z,921.65
2018-02-22T02:12:10.553Z,921.64
2018-02-22T02:12:38.469Z,921.66
2018-02-22T02:13:06.589Z,921.66
2018-02-22T02:13:34.703Z,921.71
2018-02-22T02:14:02.801Z,921.71
2018-02-22T02:15:14.083Z,921.7
2018-02-22T02:15:42.249Z,921.72
2018-02-22T02:16:10.478Z,921.75
2018-02-22T02:16:38.478Z,921.74
2018-02-22T02:17:06.507Z,921.72
2018-02-22T02:17:34.787Z,921.75
2018-02-22T02:18:02.877Z,921.75
2018-02-22T02:18:31.001Z,921.75
2018-02-22T02:18:59.024Z,921.75
2018-02-22T02:19:27.237Z,921.75
2018-02-22T02:19:55.431Z,921.73
2018-02-22T02:21:06.613Z,921.72
2018-02-22T02:21:34.876Z,921.71
2018-02-22T02:22:03.018Z,921.73
2018-02-22T02:22:31.209Z,921.71
2018-02-22T02:22:59.242Z,921.69
2018-02-22T02:23:27.412Z,921.74
2018-02-22T02:23:55.596Z,921.71
2018-02-22T02:24:23.721Z,921.71
2018-02-22T02:24:51.938Z,921.75
2018-02-22T02:25:19.960Z,921.76
2018-02-22T02:25:47.951Z,921.75
2018-02-22T02:26:59.136Z,921.75
2018-02-22T02:27:27.398Z,921.76
2018-02-22T02:27:55.434Z,921.79
2018-02-22T02:28:23.430Z,921.84
2018-02-22T02:28:51.265Z,921.79
2018-02-22T02:29:19.437Z,921.84
2018-02-22T02:29:47.534Z,921.87
2018-02-22T02:30:15.653Z,921.88
2018-02-22T02:30:43.780Z,921.87
2018-02-22T02:31:11.894Z,921.94
2018-02-22T02:31:39.988Z,921.91
2018-02-22T02:32:51.279Z,921.92
2018-02-22T02:33:19.443Z,921.94
2018-02-22T02:33:47.675Z,921.91
2018-02-22T02:34:15.568Z,921.93
2018-02-22T02:34:43.497Z,921.93
2018-02-22T02:35:11.678Z,921.9
2018-02-22T02:35:39.680Z,921.86
2018-02-22T02:36:07.706Z,921.89
2018-02-22T02:36:35.921Z,921.85
2018-02-22T02:37:04.039Z,921.86
2018-02-22T02:37:32.232Z,921.87
2018-02-22T02:38:43.532Z,921.85
2018-02-22T02:39:11.779Z,921.81
2018-02-22T02:39:39.820Z,921.82
2018-02-22T02:40:07.808Z,921.82
2018-02-22T02:40:36.042Z,921.77
2018-02-22T02:41:04.115Z,921.8
2018-02-22T02:41:32.412Z,921.79
2018-02-22T02:42:00.436Z,921.78
2018-02-22T02:42:28.458Z,921.79
2018-02-22T02:42:56.676Z,921.8
2018-02-22T02:43:24.871Z,921.77
2018-02-22T02:44:35.957Z,921.78
2018-02-22T02:45:04.020Z,921.73
2018-02-22T02:45:32.160Z,921.74
2018-02-22T02:45:59.953Z,921.75
2018-02-22T02:46:28.085Z,921.74
2018-02-22T02:46:56.265Z,921.73
2018-02-22T02:47:24.257Z,921.74
2018-02-22T02:47:52.381Z,921.72
2018-02-22T02:48:20.394Z,921.75
2018-02-22T02:48:48.408Z,921.73
2018-02-22T02:49:16.505Z,921.71
2018-02-22T02:50:27.588Z,921.7
2018-02-22T02:50:55.847Z,921.68
2018-02-22T02:51:23.984Z,921.7
2018-02-22T02:51:52.174Z,921.67
2018-02-22T02:52:20.204Z,921.66
2018-02-22T02:52:48.383Z,921.69
2018-02-22T02:53:16.677Z,921.66
2018-02-22T02:53:44.801Z,921.61
2018-02-22T02:54:12.929Z,921.61
2018-02-22T02:54:41.142Z,921.61
2018-02-22T02:55:09.338Z,921.58
2018-02-22T02:56:20.623Z,921.56
2018-02-22T02:56:48.787Z,921.52
2018-02-22T02:57:17.028Z,921.52
2018-02-22T02:57:45.118Z,921.49
2018-02-22T02:58:13.251Z,921.49
2018-02-22T02:58:41.428Z,921.49
2018-02-22T02:59:09.718Z,921.46
2018-02-22T02:59:37.738Z,921.46
2018-02-22T03:00:05.855Z,921.5
2018-02-22T03:00:34.074Z,921.48
2018-02-22T03:01:02.170Z,921.5
2018-02-22T03:02:13.452Z,921.46
2018-02-22T03:02:41.716Z,921.46
2018-02-22T03:03:09.654Z,921.48
2018-02-22T03:03:37.646Z,921.44
2018-02-22T03:04:05.780Z,921.47
2018-02-22T03:04:33.955Z,921.47
2018-02-22T03:05:02.154Z,921.49
2018-02-22T03:05:30.174Z,921.46
2018-02-22T03:05:58.300Z,921.42
2018-02-22T03:06:26.324Z,921.42
2018-02-22T03:06:54.514Z,921.42
2018-02-22T03:08:05.800Z,921.38
2018-02-22T03:08:34.060Z,921.37
2018-02-22T03:09:02.301Z,921.38
2018-02-22T03:09:30.489Z,921.39
2018-02-22T03:09:58.724Z,921.34
2018-02-22T03:10:26.900Z,921.37
2018-02-22T03:10:54.996Z,921.34
2018-02-22T03:11:23.121Z,921.32
2018-02-22T03:11:51.337Z,921.32
2018-02-22T03:12:19.651Z,921.3
2018-02-22T03:12:47.846Z,921.27
2018-02-22T03:13:59.035Z,921.23
2018-02-22T03:14:27.190Z,921.24
2018-02-22T03:14:55.327Z,921.23
2018-02-22T03:15:23.426Z,921.22
2018-02-22T03:15:51.658Z,921.21
2018-02-22T03:16:19.939Z,921.21
2018-02-22T03:16:48.238Z,921.2
2018-02-22T03:17:16.470Z,921.21
2018-02-22T03:17:44.787Z,921.22
2018-02-22T03:18:13.005Z,921.21
2018-02-22T03:18:41.201Z,921.19
2018-02-22T03:19:52.488Z,921.21
2018-02-22T03:20:20.755Z,921.24
2018-02-22T03:20:48.992Z,921.25
2018-02-22T03:21:17.186Z,921.28
2018-02-22T03:21:45.415Z,921.27
2018-02-22T03:22:13.691Z,921.26
2018-02-22T03:22:41.983Z,921.26
2018-02-22T03:23:10.205Z,921.23
2018-02-22T03:23:38.523Z,921.24
2018-02-22T03:24:06.839Z,921.22
2018-02-22T03:24:35.134Z,921.22
2018-02-22T03:25:46.315Z,921.21
2018-02-22T03:26:14.282Z,921.19
2018-02-22T03:26:42.523Z,921.21
2018-02-22T03:27:10.716Z,921.21
2018-02-22T03:27:38.951Z,921.17
2018-02-22T03:28:07.029Z,921.17
2018-02-22T03:28:35.324Z,921.16
2018-02-22T03:29:03.443Z,921.17
2018-02-22T03:29:31.658Z,921.15
2018-02-22T03:29:59.771Z,921.13
2018-02-22T03:30:27.973Z,921.15
2018-02-22T03:31:39.159Z,921.11
2018-02-22T03:32:07.320Z,921.1
2018-02-22T03:32:35.560Z,921.08
2018-02-22T03:33:03.651Z,921.11
2018-02-22T03:33:31.685Z,921.1
2018-02-22T03:33:59.961Z,921.09
2018-02-22T03:34:28.257Z,921.11
2018-02-22T03:34:56.484Z,921.09
2018-02-22T03:35:24.704Z,921.09
2018-02-22T03:35:53.025Z,921.06
2018-02-22T03:36:21.119Z,921.07
2018-02-22T03:37:32.103Z,921.09
2018-02-22T03:38:00.267Z,921.04
2018-02-22T03:38:28.410Z,921.04
2018-02-22T03:38:56.500Z,921.03
2018-02-22T03:39:24.741Z,921.06
2018-02-22T03:39:53.019Z,921.07
2018-02-22T03:40:21.119Z,921.07
2018-02-22T03:40:49.347Z,921
2018-02-22T03:41:17.567Z,921.02
2018-02-22T03:41:45.785Z,921.03
2018-02-22T03:42:13.983Z,921.03
2018-02-22T03:43:25.166Z,921.03
2018-02-22T03:43:53.433Z,921.04
2018-02-22T03:44:21.570Z,921.05
2018-02-22T03:44:49.668Z,921.04
2018-02-22T03:45:17.797Z,921.05
2018-02-22T03:45:46.075Z,921.03
2018-02-22T03:46:14.374Z,921.04
2018-02-22T03:46:42.504Z,921.05
2018-02-22T03:47:10.718Z,921.04
2018-02-22T03:47:38.737Z,921.02
2018-02-22T03:48:06.936Z,921.03
2018-02-22T03:49:18.127Z,921.02
2018-02-22T03:49:46.414Z,921.04
2018-02-22T03:50:14.525Z,921.02
2018-02-22T03:50:42.612Z,921.04
2018-02-22T03:51:10.849Z,921.04
2018-02-22T03:51:39.018Z,921.01
2018-02-22T03:52:07.015Z,920.98
2018-02-22T03:52:35.145Z,921.02
2018-02-22T03:53:03.466Z,921.06
2018-02-22T03:53:31.784Z,921.02
2018-02-22T03:53:59.973Z,921.02
2018-02-22T03:55:11.254Z,921.08
2018-02-22T03:55:39.421Z,921.06
2018-02-22T03:56:07.653Z,921.06
2018-02-22T03:56:35.849Z,921.08
2018-02-22T03:57:04.081Z,921.05
2018-02-22T03:57:32.161Z,921.04
2018-02-22T03:58:00.351Z,921.05
2018-02-22T03:58:28.373Z,921.06
2018-02-22T03:58:56.694Z,921.06
2018-02-22T03:59:24.908Z,921.03
2018-02-22T03:59:53.104Z,921.04
2018-02-22T04:01:04.286Z,921.05
2018-02-22T04:01:32.456Z,920.99
2018-02-22T04:02:00.591Z,920.99
2018-02-22T04:02:28.780Z,921
2018-02-22T04:02:56.715Z,920.99
2018-02-22T04:03:24.894Z,921
2018-02-22T04:03:52.991Z,921
2018-02-22T04:04:21.111Z,921.02
2018-02-22T04:04:49.432Z,921.02
2018-02-22T04:05:17.552Z,921.03
2018-02-22T04:05:45.747Z,921.02
2018-02-22T04:06:57.036Z,921.01
2018-02-22T04:07:25.201Z,921.01
2018-02-22T04:07:53.242Z,921.03
2018-02-22T04:08:21.331Z,920.98
2018-02-22T04:08:49.467Z,921.01
2018-02-22T04:09:17.544Z,920.95
2018-02-22T04:09:45.741Z,920.99
2018-02-22T04:10:13.969Z,920.98
2018-02-22T04:10:42.293Z,921
2018-02-22T04:11:10.508Z,920.98
2018-02-22T04:11:38.702Z,920.97
2018-02-22T04:12:49.887Z,920.95
2018-02-22T04:13:17.849Z,920.94
2018-02-22T04:13:46.093Z,920.95
2018-02-22T04:14:14.193Z,920.88
2018-02-22T04:14:42.119Z,920.9
2018-02-22T04:15:10.197Z,920.89
2018-02-22T04:15:38.490Z,920.88
2018-02-22T04:16:06.614Z,920.85
2018-02-22T04:16:34.833Z,920.89
2018-02-22T04:17:02.952Z,920.83
2018-02-22T04:17:31.145Z,920.84
2018-02-22T04:18:42.433Z,920.82
2018-02-22T04:19:10.603Z,920.83
2018-02-22T04:19:38.837Z,920.81
2018-02-22T04:20:06.933Z,920.81
2018-02-22T04:20:35.069Z,920.77
2018-02-22T04:21:03.142Z,920.75
2018-02-22T04:21:31.335Z,920.72
2018-02-22T04:21:59.460Z,920.73
2018-02-22T04:22:27.577Z,920.7
2018-02-22T04:22:55.695Z,920.68
2018-02-22T04:23:23.889Z,920.69
2018-02-22T04:24:35.175Z,920.67
2018-02-22T04:25:03.238Z,920.66
2018-02-22T04:25:31.376Z,920.67
2018-02-22T04:25:59.466Z,920.63
2018-02-22T04:26:27.500Z,920.69
2018-02-22T04:26:55.776Z,920.65
2018-02-22T04:27:23.968Z,920.67
2018-02-22T04:27:52.194Z,920.68
2018-02-22T04:28:20.516Z,920.65
2018-02-22T04:28:48.834Z,920.65
2018-02-22T04:29:16.925Z,920.67
2018-02-22T04:30:28.111Z,920.64
2018-02-22T04:30:56.376Z,920.59
2018-02-22T04:31:24.515Z,920.6
2018-02-22T04:31:52.609Z,920.61
2018-02-22T04:32:20.541Z,920.6
2018-02-22T04:32:48.817Z,920.58
2018-02-22T04:33:17.115Z,920.6
2018-02-22T04:33:45.132Z,920.6
2018-02-22T04:34:13.251Z,920.59
2018-02-22T04:34:41.271Z,920.56
2018-02-22T04:35:09.568Z,920.56
2018-02-22T04:36:20.851Z,920.57
2018-02-22T04:36:49.012Z,920.53
2018-02-22T04:37:17.151Z,920.55
2018-02-22T04:37:45.339Z,920.54
2018-02-22T04:38:13.475Z,920.52
2018-02-22T04:38:41.552Z,920.53
2018-02-22T04:39:09.643Z,920.5
2018-02-22T04:39:37.768Z,920.49
2018-02-22T04:40:05.891Z,920.46
2018-02-22T04:40:34.209Z,920.5
2018-02-22T04:41:02.407Z,920.47
2018-02-22T04:42:13.589Z,920.48
2018-02-22T04:42:41.651Z,920.46
2018-02-22T04:43:09.896Z,920.45
2018-02-22T04:43:37.978Z,920.46
2018-02-22T04:44:06.110Z,920.43
2018-02-22T04:44:34.289Z,920.41
2018-02-22T04:45:02.480Z,920.42
2018-02-22T04:45:30.607Z,920.43
2018-02-22T04:45:58.829Z,920.41
2018-02-22T04:46:27.147Z,920.4
2018-02-22T04:46:55.239Z,920.41
2018-02-22T04:48:06.525Z,920.4
2018-02-22T04:48:34.588Z,920.46
2018-02-22T04:49:02.622Z,920.43
2018-02-22T04:49:30.818Z,920.45
2018-02-22T04:49:58.857Z,920.43
2018-02-22T04:50:27.080Z,920.41
2018-02-22T04:50:55.118Z,920.44
2018-02-22T04:51:23.240Z,920.43
2018-02-22T04:51:51.462Z,920.44
2018-02-22T04:52:19.676Z,920.47
2018-02-22T04:52:47.774Z,920.49
2018-02-22T04:53:58.958Z,920.46
2018-02-22T04:54:27.028Z,920.48
2018-02-22T04:54:55.268Z,920.49
2018-02-22T04:55:23.455Z,920.48
2018-02-22T04:55:51.486Z,920.5
2018-02-22T04:56:19.660Z,920.5
2018-02-22T04:56:47.755Z,920.49
2018-02-22T04:57:15.777Z,920.47
2018-02-22T04:57:44.095Z,920.48
2018-02-22T04:58:12.409Z,920.45
2018-02-22T04:58:40.706Z,920.47
2018-02-22T04:59:51.894Z,920.46
2018-02-22T05:00:20.157Z,920.43
2018-02-22T05:00:48.297Z,920.43
2018-02-22T05:01:16.490Z,920.42
2018-02-22T05:01:44.526Z,920.42
2018-02-22T05:02:12.601Z,920.41
2018-02-22T05:02:40.694Z,920.42
2018-02-22T05:03:08.917Z,920.44
2018-02-22T05:03:37.137Z,920.4
2018-02-22T05:04:05.353Z,920.4
2018-02-22T05:04:33.543Z,920.42
2018-02-22T05:05:44.830Z,920.44
2018-02-22T05:06:12.995Z,920.38
2018-02-22T05:06:41.130Z,920.4
2018-02-22T05:07:09.122Z,920.4
2018-02-22T05:07:37.256Z,920.4
2018-02-22T05:08:05.329Z,920.43
2018-02-22T05:08:33.426Z,920.39
2018-02-22T05:09:01.448Z,920.4
2018-02-22T05:09:29.568Z,920.43
2018-02-22T05:09:57.685Z,920.43
2018-02-22T05:10:25.876Z,920.4
2018-02-22T05:11:36.966Z,920.41
2018-02-22T05:12:05.126Z,920.41
2018-02-22T05:12:33.163Z,920.4
2018-02-22T05:13:01.263Z,920.39
2018-02-22T05:13:29.381Z,920.35
2018-02-22T05:13:57.655Z,920.34
2018-02-22T05:14:25.751Z,920.36
2018-02-22T05:14:53.668Z,920.36
2018-02-22T05:15:21.885Z,920.34
2018-02-22T05:15:50.104Z,920.35
2018-02-22T05:16:18.400Z,920.34
2018-02-22T05:17:29.681Z,920.34
2018-02-22T05:17:57.844Z,920.37
2018-02-22T05:18:25.981Z,920.37
2018-02-22T05:18:54.068Z,920.38
2018-02-22T05:19:21.997Z,920.38
2018-02-22T05:19:49.979Z,920.39
2018-02-22T05:20:18.270Z,920.37
2018-02-22T05:20:46.292Z,920.39
2018-02-22T05:21:14.512Z,920.38
2018-02-22T05:21:42.723Z,920.37
2018-02-22T05:22:10.922Z,920.39
2018-02-22T05:23:22.007Z,920.39
2018-02-22T05:23:50.165Z,920.37
2018-02-22T05:24:18.200Z,920.36
2018-02-22T05:24:46.292Z,920.37
2018-02-22T05:25:14.423Z,920.35
2018-02-22T05:25:42.698Z,920.37
2018-02-22T05:26:10.895Z,920.3
2018-02-22T05:26:38.818Z,920.31
2018-02-22T05:27:07.142Z,920.29
2018-02-22T05:27:35.248Z,920.33
2018-02-22T05:28:03.345Z,920.3
2018-02-22T05:29:14.630Z,920.24
2018-02-22T05:29:42.837Z,920.29
2018-02-22T05:30:10.975Z,920.29
2018-02-22T05:30:38.767Z,920.28
2018-02-22T05:31:06.701Z,920.31
2018-02-22T05:31:34.877Z,920.27
2018-02-22T05:32:02.973Z,920.28
2018-02-22T05:32:31.192Z,920.31
2018-02-22T05:32:59.508Z,920.33
2018-02-22T05:33:27.724Z,920.32
2018-02-22T05:33:55.923Z,920.35
2018-02-22T05:35:06.905Z,920.33
2018-02-22T05:35:35.063Z,920.34
2018-02-22T05:36:03.302Z,920.36
2018-02-22T05:36:31.392Z,920.33
2018-02-22T05:36:59.560Z,920.36
2018-02-22T05:37:27.400Z,920.35
2018-02-22T05:37:55.590Z,920.31
2018-02-22T05:38:23.611Z,920.3
2018-02-22T05:38:51.827Z,920.3
2018-02-22T05:39:20.144Z,920.27
2018-02-22T05:39:48.340Z,920.28
2018-02-22T05:40:59.523Z,920.29
2018-02-22T05:41:27.684Z,920.3
2018-02-22T05:41:55.817Z,920.28
2018-02-22T05:42:24.040Z,920.25
2018-02-22T05:42:52.044Z,920.29
2018-02-22T05:43:20.224Z,920.26
2018-02-22T05:43:48.316Z,920.3
2018-02-22T05:44:16.340Z,920.29
2018-02-22T05:44:44.362Z,920.29
2018-02-22T05:45:12.674Z,920.3
2018-02-22T05:45:40.671Z,920.3
2018-02-22T05:46:51.654Z,920.32
2018-02-22T05:47:19.911Z,920.32
2018-02-22T05:47:48.045Z,920.29
2018-02-22T05:48:16.236Z,920.28
2018-02-22T05:48:44.364Z,920.28
2018-02-22T05:49:12.446Z,920.3
2018-02-22T05:49:40.444Z,920.3
2018-02-22T05:50:08.668Z,920.25
2018-02-22T05:50:36.880Z,920.27
2018-02-22T05:51:04.998Z,920.27
2018-02-22T05:51:33.190Z,920.26
2018-02-22T05:52:44.373Z,920.22
2018-02-22T05:53:12.536Z,920.23
2018-02-22T05:53:40.477Z,920.23
2018-02-22T05:54:08.557Z,920.21
2018-02-22T05:54:36.688Z,920.22
2018-02-22T05:55:04.766Z,920.21
2018-02-22T05:55:33.058Z,920.23
2018-02-22T05:56:00.984Z,920.17
2018-02-22T05:56:29.099Z,920.16
2018-02-22T05:56:57.317Z,920.15
2018-02-22T05:57:25.414Z,920.16
2018-02-22T05:58:36.606Z,920.16
2018-02-22T05:59:04.864Z,920.15
2018-02-22T05:59:33.100Z,920.13
2018-02-22T06:00:01.094Z,920.13
2018-02-22T06:00:29.127Z,920.14
2018-02-22T06:00:57.301Z,920.09
2018-02-22T06:01:25.498Z,920.11
2018-02-22T06:01:53.623Z,920.11
2018-02-22T06:02:21.639Z,920.08
2018-02-22T06:02:49.851Z,920.09
2018-02-22T06:03:18.148Z,920.06
2018-02-22T06:04:29.432Z,920.09
2018-02-22T06:04:57.589Z,920.05
2018-02-22T06:05:25.731Z,920.06
2018-02-22T06:05:53.622Z,920.05
2018-02-22T06:06:21.551Z,920.05
2018-02-22T06:06:49.624Z,920.07
2018-02-22T06:07:17.623Z,920.05
2018-02-22T06:07:45.647Z,920.06
2018-02-22T06:08:13.861Z,920.07
2018-02-22T06:08:42.073Z,920.09
2018-02-22T06:09:10.371Z,920.08
2018-02-22T06:10:21.659Z,920.08
2018-02-22T06:10:49.823Z,920.1
2018-02-22T06:11:17.957Z,920.13
2018-02-22T06:11:46.047Z,920.12
2018-02-22T06:12:14.182Z,920.13
2018-02-22T06:12:42.261Z,920.12
2018-02-22T06:13:10.549Z,920.12
2018-02-22T06:13:38.671Z,920.1
2018-02-22T06:14:06.890Z,920.07
2018-02-22T06:14:34.910Z,920.09
2018-02-22T06:15:03.007Z,920.1
2018-02-22T06:16:14.298Z,920.07
2018-02-22T06:16:42.563Z,920.07
2018-02-22T06:17:10.500Z,920.08
2018-02-22T06:17:38.492Z,920.09
2018-02-22T06:18:06.520Z,920.06
2018-02-22T06:18:34.797Z,920.09
2018-02-22T06:19:02.992Z,920.09
2018-02-22T06:19:31.115Z,920.1
2018-02-22T06:19:59.433Z,920.09
2018-02-22T06:20:27.552Z,920.08
2018-02-22T06:20:55.848Z,920.08
2018-02-22T06:22:07.142Z,920.05
2018-02-22T06:22:35.297Z,920.04
2018-02-22T06:23:03.335Z,920.04
2018-02-22T06:23:31.425Z,920.05
2018-02-22T06:23:59.646Z,920.03
2018-02-22T06:24:27.824Z,920.06
2018-02-22T06:24:56.114Z,920.06
2018-02-22T06:25:24.238Z,920.04
2018-02-22T06:25:52.457Z,920.03
2018-02-22T06:26:20.769Z,920.08
2018-02-22T06:26:48.861Z,920.07
2018-02-22T06:28:00.148Z,920.05
2018-02-22T06:28:28.207Z,920.11
2018-02-22T06:28:56.242Z,920.09
2018-02-22T06:29:24.439Z,920.06
2018-02-22T06:29:52.674Z,920.1
2018-02-22T06:30:20.944Z,920.05
2018-02-22T06:30:49.142Z,920.03
2018-02-22T06:31:16.961Z,920.07
2018-02-22T06:31:44.876Z,920.05
2018-02-22T06:32:12.994Z,920.08
2018-02-22T06:32:41.290Z,920.05
2018-02-22T06:33:52.477Z,920.04
2018-02-22T06:34:20.643Z,920.06
2018-02-22T06:34:48.879Z,920.01
2018-02-22T06:35:16.874Z,920.06
2018-02-22T06:35:44.997Z,920.06
2018-02-22T06:36:13.073Z,920.06
2018-02-22T06:36:41.366Z,920.04
2018-02-22T06:37:09.493Z,920.06
2018-02-22T06:37:37.619Z,920.08
2018-02-22T06:38:05.837Z,920.06
2018-02-22T06:38:33.933Z,920.06
2018-02-22T06:39:45.024Z,920.08
2018-02-22T06:40:13.087Z,920.03
2018-02-22T06:40:41.118Z,920.04
2018-02-22T06:41:09.011Z,920.05